sensor_id;sensor_type;location;lat;lon;timestamp;P1;durP1;ratioP1;P2;durP2;ratioP2
51862;SDS011;37900;52.996;6.278;2022-09-25T00:01:31;3.25;;;1.63;;
51862;SDS011;37900;52.996;6.278;2022-09-25T00:03:57;3.50;;;1.80;;
51862;SDS011;37900;52.996;6.278;2022-09-25T00:06:24;2.95;;;1.70;;
51862;SDS011;37900;52.996;6.278;2022-09-25T00:08:51;3.28;;;1.67;;
51862;SDS011;37900;52.996;6.278;2022-09-25T00:11:18;3.33;;;1.75;;
51862;SDS011;37900;52.996;6.278;2022-09-25T00:13:56;3.33;;;1.60;;
51862;SDS011;37900;52.996;6.278;2022-09-25T00:16:24;1.70;;;1.40;;
51862;SDS011;37900;52.996;6.278;2022-09-25T00:18:51;3.20;;;1.67;;
51862;SDS011;37900;52.996;6.278;2022-09-25T00:21:35;2.88;;;1.50;;
51862;SDS011;37900;52.996;6.278;2022-09-25T00:24:03;4.85;;;1.83;;
51862;SDS011;37900;52.996;6.278;2022-09-25T00:26:31;2.95;;;1.52;;
51862;SDS011;37900;52.996;6.278;2022-09-25T00:28:58;2.20;;;1.60;;
51862;SDS011;37900;52.996;6.278;2022-09-25T00:31:28;2.88;;;1.67;;
51862;SDS011;37900;52.996;6.278;2022-09-25T00:34:01;3.95;;;2.03;;
51862;SDS011;37900;52.996;6.278;2022-09-25T00:36:29;2.88;;;1.60;;
51862;SDS011;37900;52.996;6.278;2022-09-25T00:38:55;2.45;;;1.45;;
51862;SDS011;37900;52.996;6.278;2022-09-25T00:41:22;3.85;;;1.85;;
51862;SDS011;37900;52.996;6.278;2022-09-25T00:43:51;2.45;;;1.63;;
51862;SDS011;37900;52.996;6.278;2022-09-25T00:51:41;3.97;;;1.75;;
51862;SDS011;37900;52.996;6.278;2022-09-25T00:54:24;2.00;;;1.35;;
51862;SDS011;37900;52.996;6.278;2022-09-25T00:56:53;2.72;;;1.85;;
51862;SDS011;37900;52.996;6.278;2022-09-25T00:59:24;2.80;;;1.65;;
51862;SDS011;37900;52.996;6.278;2022-09-25T01:01:57;2.47;;;1.40;;
51862;SDS011;37900;52.996;6.278;2022-09-25T01:04:23;1.92;;;1.35;;
51862;SDS011;37900;52.996;6.278;2022-09-25T01:06:51;2.58;;;1.45;;
51862;SDS011;37900;52.996;6.278;2022-09-25T01:09:18;1.63;;;1.27;;
51862;SDS011;37900;52.996;6.278;2022-09-25T01:11:44;2.40;;;1.50;;
51862;SDS011;37900;52.996;6.278;2022-09-25T01:14:10;2.08;;;1.45;;
51862;SDS011;37900;52.996;6.278;2022-09-25T01:16:53;2.28;;;1.23;;
51862;SDS011;37900;52.996;6.278;2022-09-25T01:19:42;2.60;;;1.30;;
51862;SDS011;37900;52.996;6.278;2022-09-25T01:25:01;2.03;;;1.55;;
51862;SDS011;37900;52.996;6.278;2022-09-25T01:28:01;2.15;;;1.42;;
51862;SDS011;37900;52.996;6.278;2022-09-25T01:31:07;2.42;;;1.67;;
51862;SDS011;37900;52.996;6.278;2022-09-25T01:33:53;2.28;;;1.20;;
51862;SDS011;37900;52.996;6.278;2022-09-25T01:36:26;3.75;;;1.60;;
51862;SDS011;37900;52.996;6.278;2022-09-25T01:39:02;2.10;;;1.58;;
51862;SDS011;37900;52.996;6.278;2022-09-25T01:41:38;1.38;;;1.23;;
51862;SDS011;37900;52.996;6.278;2022-09-25T01:44:15;2.60;;;1.50;;
51862;SDS011;37900;52.996;6.278;2022-09-25T01:46:50;2.95;;;1.30;;
51862;SDS011;37900;52.996;6.278;2022-09-25T01:51:50;2.53;;;1.35;;
51862;SDS011;37900;52.996;6.278;2022-09-25T01:54:28;2.45;;;1.15;;
51862;SDS011;37900;52.996;6.278;2022-09-25T01:57:04;2.03;;;1.30;;
51862;SDS011;37900;52.996;6.278;2022-09-25T01:59:38;3.10;;;1.85;;
51862;SDS011;37900;52.996;6.278;2022-09-25T02:02:06;2.35;;;1.60;;
51862;SDS011;37900;52.996;6.278;2022-09-25T02:04:38;2.28;;;1.55;;
51862;SDS011;37900;52.996;6.278;2022-09-25T02:07:21;3.45;;;1.63;;
51862;SDS011;37900;52.996;6.278;2022-09-25T02:09:53;1.95;;;1.25;;
51862;SDS011;37900;52.996;6.278;2022-09-25T02:12:26;1.95;;;1.25;;
51862;SDS011;37900;52.996;6.278;2022-09-25T02:15:04;2.40;;;1.60;;
51862;SDS011;37900;52.996;6.278;2022-09-25T02:17:53;2.97;;;1.40;;
51862;SDS011;37900;52.996;6.278;2022-09-25T02:20:42;2.38;;;1.60;;
51862;SDS011;37900;52.996;6.278;2022-09-25T02:23:32;2.10;;;1.52;;
51862;SDS011;37900;52.996;6.278;2022-09-25T02:26:28;2.25;;;1.92;;
51862;SDS011;37900;52.996;6.278;2022-09-25T02:28:56;2.67;;;1.02;;
51862;SDS011;37900;52.996;6.278;2022-09-25T02:31:24;1.60;;;1.10;;
51862;SDS011;37900;52.996;6.278;2022-09-25T02:34:12;1.67;;;1.20;;
51862;SDS011;37900;52.996;6.278;2022-09-25T02:36:38;1.45;;;1.10;;
51862;SDS011;37900;52.996;6.278;2022-09-25T02:39:04;1.88;;;1.40;;
51862;SDS011;37900;52.996;6.278;2022-09-25T02:41:42;2.00;;;1.00;;
51862;SDS011;37900;52.996;6.278;2022-09-25T02:50:38;1.98;;;1.40;;
51862;SDS011;37900;52.996;6.278;2022-09-25T02:55:39;1.05;;;0.90;;
51862;SDS011;37900;52.996;6.278;2022-09-25T03:00:52;2.15;;;1.30;;
51862;SDS011;37900;52.996;6.278;2022-09-25T03:03:21;3.55;;;1.20;;
51862;SDS011;37900;52.996;6.278;2022-09-25T03:05:49;2.63;;;1.70;;
51862;SDS011;37900;52.996;6.278;2022-09-25T03:08:18;2.63;;;1.10;;
51862;SDS011;37900;52.996;6.278;2022-09-25T03:11:05;1.30;;;1.20;;
51862;SDS011;37900;52.996;6.278;2022-09-25T03:13:42;1.30;;;1.13;;
51862;SDS011;37900;52.996;6.278;2022-09-25T03:16:19;1.47;;;1.10;;
51862;SDS011;37900;52.996;6.278;2022-09-25T03:18:58;1.77;;;1.20;;
51862;SDS011;37900;52.996;6.278;2022-09-25T03:21:24;2.22;;;1.33;;
51862;SDS011;37900;52.996;6.278;2022-09-25T03:23:50;2.10;;;1.20;;
51862;SDS011;37900;52.996;6.278;2022-09-25T03:26:16;1.55;;;1.13;;
51862;SDS011;37900;52.996;6.278;2022-09-25T03:28:41;1.70;;;1.20;;
51862;SDS011;37900;52.996;6.278;2022-09-25T03:31:09;1.13;;;1.00;;
51862;SDS011;37900;52.996;6.278;2022-09-25T03:33:44;1.48;;;0.98;;
51862;SDS011;37900;52.996;6.278;2022-09-25T03:36:12;1.58;;;1.15;;
51862;SDS011;37900;52.996;6.278;2022-09-25T03:38:41;2.65;;;1.27;;
51862;SDS011;37900;52.996;6.278;2022-09-25T03:41:08;1.77;;;1.15;;
51862;SDS011;37900;52.996;6.278;2022-09-25T03:46:04;2.15;;;1.30;;
51862;SDS011;37900;52.996;6.278;2022-09-25T03:48:31;2.90;;;1.30;;
51862;SDS011;37900;52.996;6.278;2022-09-25T03:50:57;2.03;;;1.10;;
51862;SDS011;37900;52.996;6.278;2022-09-25T03:53:24;1.88;;;1.30;;
51862;SDS011;37900;52.996;6.278;2022-09-25T03:55:51;1.30;;;1.10;;
51862;SDS011;37900;52.996;6.278;2022-09-25T03:58:17;2.72;;;1.48;;
51862;SDS011;37900;52.996;6.278;2022-09-25T04:00:45;1.75;;;1.30;;
51862;SDS011;37900;52.996;6.278;2022-09-25T04:03:12;2.05;;;1.02;;
51862;SDS011;37900;52.996;6.278;2022-09-25T04:05:39;2.17;;;0.95;;
51862;SDS011;37900;52.996;6.278;2022-09-25T04:08:06;1.30;;;0.80;;
51862;SDS011;37900;52.996;6.278;2022-09-25T04:10:32;1.20;;;0.80;;
51862;SDS011;37900;52.996;6.278;2022-09-25T04:13:03;1.45;;;1.17;;
51862;SDS011;37900;52.996;6.278;2022-09-25T04:17:56;1.95;;;1.10;;
51862;SDS011;37900;52.996;6.278;2022-09-25T04:20:22;1.77;;;1.23;;
51862;SDS011;37900;52.996;6.278;2022-09-25T04:22:48;1.30;;;0.90;;
51862;SDS011;37900;52.996;6.278;2022-09-25T04:25:13;1.42;;;1.00;;
51862;SDS011;37900;52.996;6.278;2022-09-25T04:27:39;0.85;;;0.75;;
51862;SDS011;37900;52.996;6.278;2022-09-25T04:30:05;1.92;;;0.98;;
51862;SDS011;37900;52.996;6.278;2022-09-25T04:32:32;1.05;;;0.95;;
51862;SDS011;37900;52.996;6.278;2022-09-25T04:35:16;1.80;;;1.08;;
51862;SDS011;37900;52.996;6.278;2022-09-25T04:37:42;1.30;;;1.08;;
51862;SDS011;37900;52.996;6.278;2022-09-25T04:40:08;1.25;;;1.00;;
51862;SDS011;37900;52.996;6.278;2022-09-25T04:42:34;1.88;;;1.00;;
51862;SDS011;37900;52.996;6.278;2022-09-25T04:45:00;1.73;;;1.20;;
51862;SDS011;37900;52.996;6.278;2022-09-25T04:47:26;1.02;;;0.80;;
51862;SDS011;37900;52.996;6.278;2022-09-25T04:49:55;1.65;;;1.10;;
51862;SDS011;37900;52.996;6.278;2022-09-25T04:52:21;1.92;;;0.98;;
51862;SDS011;37900;52.996;6.278;2022-09-25T04:54:47;1.98;;;1.20;;
51862;SDS011;37900;52.996;6.278;2022-09-25T04:57:16;1.60;;;1.00;;
51862;SDS011;37900;52.996;6.278;2022-09-25T04:59:44;1.45;;;1.05;;
51862;SDS011;37900;52.996;6.278;2022-09-25T05:02:12;2.20;;;1.05;;
51862;SDS011;37900;52.996;6.278;2022-09-25T05:04:39;1.02;;;0.90;;
51862;SDS011;37900;52.996;6.278;2022-09-25T05:07:05;0.88;;;0.80;;
51862;SDS011;37900;52.996;6.278;2022-09-25T05:09:31;1.38;;;0.85;;
51862;SDS011;37900;52.996;6.278;2022-09-25T05:11:57;1.23;;;0.90;;
51862;SDS011;37900;52.996;6.278;2022-09-25T05:14:23;1.42;;;0.88;;
51862;SDS011;37900;52.996;6.278;2022-09-25T05:16:50;1.27;;;0.82;;
51862;SDS011;37900;52.996;6.278;2022-09-25T05:19:16;1.67;;;1.13;;
51862;SDS011;37900;52.996;6.278;2022-09-25T05:21:42;1.70;;;1.13;;
51862;SDS011;37900;52.996;6.278;2022-09-25T05:24:08;1.27;;;1.05;;
51862;SDS011;37900;52.996;6.278;2022-09-25T05:26:34;1.95;;;0.80;;
51862;SDS011;37900;52.996;6.278;2022-09-25T05:29:02;1.40;;;0.73;;
51862;SDS011;37900;52.996;6.278;2022-09-25T05:31:29;1.05;;;0.80;;
51862;SDS011;37900;52.996;6.278;2022-09-25T05:33:56;1.63;;;1.10;;
51862;SDS011;37900;52.996;6.278;2022-09-25T05:36:21;1.77;;;1.23;;
51862;SDS011;37900;52.996;6.278;2022-09-25T05:38:47;1.20;;;0.80;;
51862;SDS011;37900;52.996;6.278;2022-09-25T05:41:13;1.45;;;0.80;;
51862;SDS011;37900;52.996;6.278;2022-09-25T05:43:40;0.95;;;0.73;;
51862;SDS011;37900;52.996;6.278;2022-09-25T05:46:07;2.35;;;1.00;;
51862;SDS011;37900;52.996;6.278;2022-09-25T05:48:34;1.40;;;1.00;;
51862;SDS011;37900;52.996;6.278;2022-09-25T05:51:00;1.33;;;0.90;;
51862;SDS011;37900;52.996;6.278;2022-09-25T05:53:27;1.35;;;1.20;;
51862;SDS011;37900;52.996;6.278;2022-09-25T05:55:55;1.83;;;1.23;;
51862;SDS011;37900;52.996;6.278;2022-09-25T05:58:26;1.52;;;1.08;;
51862;SDS011;37900;52.996;6.278;2022-09-25T06:00:54;1.40;;;0.80;;
51862;SDS011;37900;52.996;6.278;2022-09-25T06:03:23;1.02;;;0.55;;
51862;SDS011;37900;52.996;6.278;2022-09-25T06:06:00;0.93;;;0.70;;
51862;SDS011;37900;52.996;6.278;2022-09-25T06:08:29;1.63;;;0.95;;
51862;SDS011;37900;52.996;6.278;2022-09-25T06:10:55;1.67;;;0.80;;
51862;SDS011;37900;52.996;6.278;2022-09-25T06:13:21;1.27;;;0.82;;
51862;SDS011;37900;52.996;6.278;2022-09-25T06:15:48;1.05;;;0.80;;
51862;SDS011;37900;52.996;6.278;2022-09-25T06:18:20;0.70;;;0.70;;
51862;SDS011;37900;52.996;6.278;2022-09-25T06:20:47;0.77;;;0.70;;
51862;SDS011;37900;52.996;6.278;2022-09-25T06:23:13;0.80;;;0.65;;
51862;SDS011;37900;52.996;6.278;2022-09-25T06:25:40;1.10;;;0.67;;
51862;SDS011;37900;52.996;6.278;2022-09-25T06:28:06;0.88;;;0.75;;
51862;SDS011;37900;52.996;6.278;2022-09-25T06:30:33;1.20;;;1.00;;
51862;SDS011;37900;52.996;6.278;2022-09-25T06:33:00;1.63;;;0.70;;
51862;SDS011;37900;52.996;6.278;2022-09-25T06:35:46;1.58;;;0.80;;
51862;SDS011;37900;52.996;6.278;2022-09-25T06:38:13;0.60;;;0.60;;
51862;SDS011;37900;52.996;6.278;2022-09-25T06:40:40;1.08;;;0.70;;
51862;SDS011;37900;52.996;6.278;2022-09-25T06:43:08;1.15;;;0.65;;
51862;SDS011;37900;52.996;6.278;2022-09-25T06:45:36;0.80;;;0.50;;
51862;SDS011;37900;52.996;6.278;2022-09-25T06:50:30;1.08;;;0.75;;
51862;SDS011;37900;52.996;6.278;2022-09-25T06:53:02;0.77;;;0.70;;
51862;SDS011;37900;52.996;6.278;2022-09-25T06:55:28;0.75;;;0.70;;
51862;SDS011;37900;52.996;6.278;2022-09-25T06:57:56;1.30;;;0.80;;
51862;SDS011;37900;52.996;6.278;2022-09-25T07:00:22;1.15;;;0.90;;
51862;SDS011;37900;52.996;6.278;2022-09-25T07:02:48;0.93;;;0.70;;
51862;SDS011;37900;52.996;6.278;2022-09-25T07:05:33;2.25;;;0.98;;
51862;SDS011;37900;52.996;6.278;2022-09-25T07:07:59;2.17;;;0.95;;
51862;SDS011;37900;52.996;6.278;2022-09-25T07:10:25;1.48;;;0.80;;
51862;SDS011;37900;52.996;6.278;2022-09-25T07:12:51;1.15;;;0.73;;
51862;SDS011;37900;52.996;6.278;2022-09-25T07:15:16;0.95;;;0.80;;
51862;SDS011;37900;52.996;6.278;2022-09-25T07:17:43;0.93;;;0.75;;
51862;SDS011;37900;52.996;6.278;2022-09-25T07:20:09;0.88;;;0.70;;
51862;SDS011;37900;52.996;6.278;2022-09-25T07:22:38;2.72;;;0.93;;
51862;SDS011;37900;52.996;6.278;2022-09-25T07:25:04;0.77;;;0.63;;
51862;SDS011;37900;52.996;6.278;2022-09-25T07:27:31;0.60;;;0.60;;
51862;SDS011;37900;52.996;6.278;2022-09-25T07:29:56;1.27;;;1.02;;
51862;SDS011;37900;52.996;6.278;2022-09-25T07:32:22;0.95;;;0.57;;
51862;SDS011;37900;52.996;6.278;2022-09-25T07:34:48;0.80;;;0.57;;
51862;SDS011;37900;52.996;6.278;2022-09-25T07:37:15;2.30;;;0.93;;
51862;SDS011;37900;52.996;6.278;2022-09-25T07:39:44;1.65;;;0.95;;
51862;SDS011;37900;52.996;6.278;2022-09-25T07:42:09;2.20;;;0.80;;
51862;SDS011;37900;52.996;6.278;2022-09-25T07:44:35;2.38;;;0.82;;
51862;SDS011;37900;52.996;6.278;2022-09-25T07:47:01;1.05;;;0.90;;
51862;SDS011;37900;52.996;6.278;2022-09-25T07:49:31;1.90;;;1.23;;
51862;SDS011;37900;52.996;6.278;2022-09-25T07:52:01;2.85;;;0.93;;
51862;SDS011;37900;52.996;6.278;2022-09-25T07:54:30;2.85;;;1.02;;
51862;SDS011;37900;52.996;6.278;2022-09-25T07:56:57;0.77;;;0.60;;
51862;SDS011;37900;52.996;6.278;2022-09-25T07:59:22;1.10;;;0.75;;
51862;SDS011;37900;52.996;6.278;2022-09-25T08:01:48;1.08;;;0.80;;
51862;SDS011;37900;52.996;6.278;2022-09-25T08:04:14;1.90;;;1.20;;
51862;SDS011;37900;52.996;6.278;2022-09-25T08:06:40;2.25;;;1.02;;
51862;SDS011;37900;52.996;6.278;2022-09-25T08:09:05;2.45;;;1.00;;
51862;SDS011;37900;52.996;6.278;2022-09-25T08:11:32;0.85;;;0.80;;
51862;SDS011;37900;52.996;6.278;2022-09-25T08:13:58;1.60;;;0.90;;
51862;SDS011;37900;52.996;6.278;2022-09-25T08:16:24;1.52;;;0.73;;
51862;SDS011;37900;52.996;6.278;2022-09-25T08:18:49;1.08;;;0.70;;
51862;SDS011;37900;52.996;6.278;2022-09-25T08:21:18;1.90;;;0.90;;
51862;SDS011;37900;52.996;6.278;2022-09-25T08:23:51;1.33;;;0.93;;
51862;SDS011;37900;52.996;6.278;2022-09-25T08:26:18;1.60;;;1.10;;
51862;SDS011;37900;52.996;6.278;2022-09-25T08:28:45;3.10;;;0.90;;
51862;SDS011;37900;52.996;6.278;2022-09-25T08:31:11;1.33;;;0.95;;
51862;SDS011;37900;52.996;6.278;2022-09-25T08:36:07;1.60;;;0.82;;
51862;SDS011;37900;52.996;6.278;2022-09-25T08:38:33;1.60;;;1.00;;
51862;SDS011;37900;52.996;6.278;2022-09-25T08:41:07;1.40;;;0.80;;
51862;SDS011;37900;52.996;6.278;2022-09-25T08:43:51;8.82;;;5.05;;
51862;SDS011;37900;52.996;6.278;2022-09-25T08:46:33;4.70;;;3.20;;
51862;SDS011;37900;52.996;6.278;2022-09-25T08:49:55;6.67;;;3.50;;
51862;SDS011;37900;52.996;6.278;2022-09-25T08:52:45;6.57;;;3.03;;
51862;SDS011;37900;52.996;6.278;2022-09-25T08:55:30;5.45;;;3.20;;
51862;SDS011;37900;52.996;6.278;2022-09-25T08:58:28;4.00;;;2.28;;
51862;SDS011;37900;52.996;6.278;2022-09-25T09:01:02;6.88;;;3.45;;
51862;SDS011;37900;52.996;6.278;2022-09-25T09:03:31;5.68;;;2.63;;
51862;SDS011;37900;52.996;6.278;2022-09-25T09:06:06;4.75;;;2.47;;
51862;SDS011;37900;52.996;6.278;2022-09-25T09:08:37;4.03;;;2.72;;
51862;SDS011;37900;52.996;6.278;2022-09-25T09:11:06;4.85;;;2.53;;
51862;SDS011;37900;52.996;6.278;2022-09-25T09:13:53;4.57;;;2.25;;
51862;SDS011;37900;52.996;6.278;2022-09-25T09:18:57;3.92;;;2.70;;
51862;SDS011;37900;52.996;6.278;2022-09-25T09:29:35;4.38;;;1.85;;
51862;SDS011;37900;52.996;6.278;2022-09-25T09:38:03;4.50;;;2.20;;
51862;SDS011;37900;52.996;6.278;2022-09-25T09:48:56;3.45;;;1.90;;
51862;SDS011;37900;52.996;6.278;2022-09-25T09:51:35;2.72;;;1.75;;
51862;SDS011;37900;52.996;6.278;2022-09-25T09:54:11;2.90;;;1.60;;
51862;SDS011;37900;52.996;6.278;2022-09-25T09:56:43;2.30;;;1.30;;
51862;SDS011;37900;52.996;6.278;2022-09-25T09:59:13;4.30;;;2.38;;
51862;SDS011;37900;52.996;6.278;2022-09-25T10:01:44;5.05;;;1.90;;
51862;SDS011;37900;52.996;6.278;2022-09-25T10:06:52;3.28;;;1.65;;
51862;SDS011;37900;52.996;6.278;2022-09-25T10:09:25;1.63;;;1.30;;
51862;SDS011;37900;52.996;6.278;2022-09-25T10:12:03;5.07;;;2.10;;
51862;SDS011;37900;52.996;6.278;2022-09-25T10:14:40;1.90;;;1.50;;
51862;SDS011;37900;52.996;6.278;2022-09-25T10:17:09;2.92;;;1.70;;
51862;SDS011;37900;52.996;6.278;2022-09-25T10:22:35;2.83;;;1.95;;
51862;SDS011;37900;52.996;6.278;2022-09-25T10:25:03;3.83;;;2.10;;
51862;SDS011;37900;52.996;6.278;2022-09-25T10:27:40;3.20;;;1.50;;
51862;SDS011;37900;52.996;6.278;2022-09-25T10:30:16;2.38;;;1.70;;
51862;SDS011;37900;52.996;6.278;2022-09-25T10:38:03;3.25;;;1.30;;
51862;SDS011;37900;52.996;6.278;2022-09-25T10:40:31;3.78;;;1.65;;
51862;SDS011;37900;52.996;6.278;2022-09-25T10:45:42;3.40;;;1.73;;
51862;SDS011;37900;52.996;6.278;2022-09-25T10:51:14;2.45;;;1.35;;
51862;SDS011;37900;52.996;6.278;2022-09-25T10:53:48;5.68;;;1.92;;
51862;SDS011;37900;52.996;6.278;2022-09-25T10:56:19;2.10;;;1.20;;
51862;SDS011;37900;52.996;6.278;2022-09-25T10:58:58;2.25;;;1.30;;
51862;SDS011;37900;52.996;6.278;2022-09-25T11:01:33;2.28;;;1.55;;
51862;SDS011;37900;52.996;6.278;2022-09-25T11:04:44;6.13;;;1.70;;
51862;SDS011;37900;52.996;6.278;2022-09-25T11:06:56;2.17;;;1.40;;
51862;SDS011;37900;52.996;6.278;2022-09-25T11:09:25;2.60;;;1.60;;
51862;SDS011;37900;52.996;6.278;2022-09-25T11:12:02;3.17;;;1.27;;
51862;SDS011;37900;52.996;6.278;2022-09-25T11:14:36;1.83;;;1.42;;
51862;SDS011;37900;52.996;6.278;2022-09-25T11:17:04;3.20;;;1.48;;
51862;SDS011;37900;52.996;6.278;2022-09-25T11:19:34;3.67;;;1.77;;
51862;SDS011;37900;52.996;6.278;2022-09-25T11:43:36;2.10;;;1.25;;
51862;SDS011;37900;52.996;6.278;2022-09-25T11:46:27;2.75;;;1.55;;
51862;SDS011;37900;52.996;6.278;2022-09-25T11:49:22;2.25;;;1.20;;
51862;SDS011;37900;52.996;6.278;2022-09-25T12:10:53;3.80;;;1.10;;
51862;SDS011;37900;52.996;6.278;2022-09-25T12:19:37;2.60;;;1.23;;
51862;SDS011;37900;52.996;6.278;2022-09-25T12:30:21;2.30;;;1.50;;
51862;SDS011;37900;52.996;6.278;2022-09-25T12:35:40;1.52;;;1.10;;
51862;SDS011;37900;52.996;6.278;2022-09-25T12:40:53;0.98;;;0.90;;
51862;SDS011;37900;52.996;6.278;2022-09-25T12:43:32;2.97;;;1.23;;
51862;SDS011;37900;52.996;6.278;2022-09-25T12:48:55;2.35;;;1.30;;
51862;SDS011;37900;52.996;6.278;2022-09-25T12:51:39;2.30;;;1.38;;
51862;SDS011;37900;52.996;6.278;2022-09-25T12:57:14;2.88;;;1.52;;
51862;SDS011;37900;52.996;6.278;2022-09-25T13:02:38;2.70;;;1.60;;
51862;SDS011;37900;52.996;6.278;2022-09-25T13:05:31;2.28;;;1.33;;
51862;SDS011;37900;52.996;6.278;2022-09-25T13:08:28;1.50;;;1.10;;
51862;SDS011;37900;52.996;6.278;2022-09-25T13:11:03;1.95;;;1.20;;
51862;SDS011;37900;52.996;6.278;2022-09-25T13:13:49;2.30;;;1.00;;
51862;SDS011;37900;52.996;6.278;2022-09-25T13:16:18;1.48;;;1.10;;
51862;SDS011;37900;52.996;6.278;2022-09-25T13:18:47;2.42;;;1.50;;
51862;SDS011;37900;52.996;6.278;2022-09-25T13:21:37;1.75;;;1.00;;
51862;SDS011;37900;52.996;6.278;2022-09-25T13:24:08;1.98;;;1.10;;
51862;SDS011;37900;52.996;6.278;2022-09-25T13:26:48;1.45;;;1.05;;
51862;SDS011;37900;52.996;6.278;2022-09-25T13:29:20;2.15;;;1.10;;
51862;SDS011;37900;52.996;6.278;2022-09-25T13:31:46;1.38;;;0.90;;
51862;SDS011;37900;52.996;6.278;2022-09-25T13:34:13;2.38;;;1.10;;
51862;SDS011;37900;52.996;6.278;2022-09-25T13:39:16;3.58;;;1.33;;
51862;SDS011;37900;52.996;6.278;2022-09-25T13:42:05;1.88;;;1.02;;
51862;SDS011;37900;52.996;6.278;2022-09-25T13:44:48;1.67;;;1.10;;
51862;SDS011;37900;52.996;6.278;2022-09-25T13:49:50;1.52;;;1.25;;
51862;SDS011;37900;52.996;6.278;2022-09-25T13:52:28;1.20;;;1.08;;
51862;SDS011;37900;52.996;6.278;2022-09-25T14:00:21;1.48;;;0.95;;
51862;SDS011;37900;52.996;6.278;2022-09-25T14:02:48;1.17;;;0.97;;
51862;SDS011;37900;52.996;6.278;2022-09-25T14:05:16;1.58;;;1.15;;
51862;SDS011;37900;52.996;6.278;2022-09-25T14:07:47;2.38;;;1.02;;
51862;SDS011;37900;52.996;6.278;2022-09-25T14:10:18;1.60;;;1.10;;
51862;SDS011;37900;52.996;6.278;2022-09-25T14:12:46;1.45;;;1.20;;
51862;SDS011;37900;52.996;6.278;2022-09-25T14:17:45;2.00;;;1.10;;
51862;SDS011;37900;52.996;6.278;2022-09-25T14:22:56;1.35;;;1.02;;
51862;SDS011;37900;52.996;6.278;2022-09-25T14:28:03;1.48;;;0.73;;
51862;SDS011;37900;52.996;6.278;2022-09-25T14:30:49;1.67;;;1.05;;
51862;SDS011;37900;52.996;6.278;2022-09-25T14:34:03;1.35;;;1.25;;
51862;SDS011;37900;52.996;6.278;2022-09-25T14:36:33;2.10;;;1.35;;
51862;SDS011;37900;52.996;6.278;2022-09-25T14:39:32;1.48;;;1.02;;
51862;SDS011;37900;52.996;6.278;2022-09-25T14:48:04;1.58;;;1.30;;
51862;SDS011;37900;52.996;6.278;2022-09-25T14:50:41;1.35;;;0.90;;
51862;SDS011;37900;52.996;6.278;2022-09-25T14:53:11;1.10;;;0.73;;
51862;SDS011;37900;52.996;6.278;2022-09-25T14:55:44;2.00;;;1.20;;
51862;SDS011;37900;52.996;6.278;2022-09-25T14:58:17;1.20;;;0.93;;
51862;SDS011;37900;52.996;6.278;2022-09-25T15:00:46;1.38;;;0.90;;
51862;SDS011;37900;52.996;6.278;2022-09-25T15:03:15;1.35;;;0.90;;
51862;SDS011;37900;52.996;6.278;2022-09-25T15:05:45;1.45;;;1.00;;
51862;SDS011;37900;52.996;6.278;2022-09-25T15:11:01;1.92;;;0.93;;
51862;SDS011;37900;52.996;6.278;2022-09-25T15:13:33;0.77;;;0.73;;
51862;SDS011;37900;52.996;6.278;2022-09-25T15:15:59;1.60;;;0.75;;
51862;SDS011;37900;52.996;6.278;2022-09-25T15:18:44;1.73;;;1.23;;
51862;SDS011;37900;52.996;6.278;2022-09-25T15:24:00;1.85;;;0.93;;
51862;SDS011;37900;52.996;6.278;2022-09-25T15:26:31;1.20;;;0.68;;
51862;SDS011;37900;52.996;6.278;2022-09-25T15:29:03;1.75;;;1.10;;
51862;SDS011;37900;52.996;6.278;2022-09-25T15:31:41;1.52;;;0.88;;
51862;SDS011;37900;52.996;6.278;2022-09-25T15:34:14;1.80;;;0.80;;
51862;SDS011;37900;52.996;6.278;2022-09-25T15:36:46;1.00;;;0.88;;
51862;SDS011;37900;52.996;6.278;2022-09-25T15:39:13;1.55;;;1.10;;
51862;SDS011;37900;52.996;6.278;2022-09-25T15:41:41;1.42;;;0.88;;
51862;SDS011;37900;52.996;6.278;2022-09-25T15:44:23;1.92;;;1.10;;
51862;SDS011;37900;52.996;6.278;2022-09-25T15:46:54;2.47;;;1.08;;
51862;SDS011;37900;52.996;6.278;2022-09-25T15:52:27;1.83;;;1.17;;
51862;SDS011;37900;52.996;6.278;2022-09-25T15:55:02;2.15;;;0.80;;
51862;SDS011;37900;52.996;6.278;2022-09-25T15:57:33;1.85;;;0.95;;
51862;SDS011;37900;52.996;6.278;2022-09-25T16:00:05;1.80;;;1.05;;
51862;SDS011;37900;52.996;6.278;2022-09-25T16:02:58;1.73;;;1.00;;
51862;SDS011;37900;52.996;6.278;2022-09-25T16:05:48;2.33;;;1.13;;
51862;SDS011;37900;52.996;6.278;2022-09-25T16:08:26;1.95;;;1.05;;
51862;SDS011;37900;52.996;6.278;2022-09-25T16:13:41;1.23;;;0.80;;
51862;SDS011;37900;52.996;6.278;2022-09-25T16:16:18;1.00;;;0.80;;
51862;SDS011;37900;52.996;6.278;2022-09-25T16:18:48;2.20;;;1.23;;
51862;SDS011;37900;52.996;6.278;2022-09-25T16:21:20;1.05;;;0.85;;
51862;SDS011;37900;52.996;6.278;2022-09-25T16:23:52;1.52;;;1.10;;
51862;SDS011;37900;52.996;6.278;2022-09-25T16:26:24;1.73;;;0.80;;
51862;SDS011;37900;52.996;6.278;2022-09-25T16:29:02;0.82;;;0.82;;
51862;SDS011;37900;52.996;6.278;2022-09-25T16:31:48;1.55;;;0.80;;
51862;SDS011;37900;52.996;6.278;2022-09-25T16:36:51;2.17;;;0.95;;
51862;SDS011;37900;52.996;6.278;2022-09-25T16:39:21;3.00;;;1.15;;
51862;SDS011;37900;52.996;6.278;2022-09-25T16:49:24;1.25;;;0.82;;
51862;SDS011;37900;52.996;6.278;2022-09-25T16:51:50;2.22;;;0.98;;
51862;SDS011;37900;52.996;6.278;2022-09-25T16:54:19;5.05;;;1.25;;
51862;SDS011;37900;52.996;6.278;2022-09-25T16:56:46;6.00;;;1.52;;
51862;SDS011;37900;52.996;6.278;2022-09-25T16:59:17;5.28;;;2.10;;
51862;SDS011;37900;52.996;6.278;2022-09-25T17:01:45;3.10;;;2.03;;
51862;SDS011;37900;52.996;6.278;2022-09-25T17:04:26;3.47;;;1.67;;
51862;SDS011;37900;52.996;6.278;2022-09-25T17:06:54;16.63;;;5.22;;
51862;SDS011;37900;52.996;6.278;2022-09-25T17:09:25;40.97;;;14.35;;
51862;SDS011;37900;52.996;6.278;2022-09-25T17:12:14;25.00;;;10.07;;
51862;SDS011;37900;52.996;6.278;2022-09-25T17:14:44;20.20;;;7.75;;
51862;SDS011;37900;52.996;6.278;2022-09-25T17:17:10;13.55;;;7.20;;
51862;SDS011;37900;52.996;6.278;2022-09-25T17:19:39;47.17;;;18.15;;
51862;SDS011;37900;52.996;6.278;2022-09-25T17:22:04;41.72;;;13.00;;
51862;SDS011;37900;52.996;6.278;2022-09-25T17:24:30;18.70;;;9.02;;
51862;SDS011;37900;52.996;6.278;2022-09-25T17:26:56;16.45;;;8.20;;
51862;SDS011;37900;52.996;6.278;2022-09-25T17:29:21;23.65;;;9.60;;
51862;SDS011;37900;52.996;6.278;2022-09-25T17:31:47;21.83;;;8.98;;
51862;SDS011;37900;52.996;6.278;2022-09-25T17:34:18;21.02;;;9.70;;
51862;SDS011;37900;52.996;6.278;2022-09-25T17:36:49;21.10;;;8.43;;
51862;SDS011;37900;52.996;6.278;2022-09-25T17:39:15;17.93;;;8.20;;
51862;SDS011;37900;52.996;6.278;2022-09-25T17:41:41;23.60;;;8.90;;
51862;SDS011;37900;52.996;6.278;2022-09-25T17:44:08;16.50;;;8.15;;
51862;SDS011;37900;52.996;6.278;2022-09-25T17:46:37;19.15;;;8.60;;
51862;SDS011;37900;52.996;6.278;2022-09-25T17:49:03;15.45;;;7.70;;
51862;SDS011;37900;52.996;6.278;2022-09-25T17:51:29;19.45;;;7.68;;
51862;SDS011;37900;52.996;6.278;2022-09-25T17:53:55;16.80;;;7.65;;
51862;SDS011;37900;52.996;6.278;2022-09-25T17:56:22;19.35;;;7.88;;
51862;SDS011;37900;52.996;6.278;2022-09-25T17:58:49;14.82;;;6.65;;
51862;SDS011;37900;52.996;6.278;2022-09-25T18:01:20;15.93;;;7.30;;
51862;SDS011;37900;52.996;6.278;2022-09-25T18:03:47;16.52;;;6.88;;
51862;SDS011;37900;52.996;6.278;2022-09-25T18:06:13;14.25;;;7.30;;
51862;SDS011;37900;52.996;6.278;2022-09-25T18:08:39;14.85;;;6.50;;
51862;SDS011;37900;52.996;6.278;2022-09-25T18:11:09;26.00;;;8.25;;
51862;SDS011;37900;52.996;6.278;2022-09-25T18:16:01;19.77;;;7.53;;
51862;SDS011;37900;52.996;6.278;2022-09-25T18:18:28;12.20;;;6.20;;
51862;SDS011;37900;52.996;6.278;2022-09-25T18:21:14;14.55;;;6.72;;
51862;SDS011;37900;52.996;6.278;2022-09-25T18:23:59;13.15;;;6.35;;